logo tempoitalia

Diretta Meteo Rota, Spagnalunedì 31 agosto ore 07:00

Mappa
Sereno 20 °C Sereno 24 Ore: T.min 17 T.max 29
Ponente Est Km/h 9.3 Punto di rugiada: 17 °C Umidità: 82% Visibilità: 10 Km
Il sole sorge alle: 07:55 Il sole tramonta alle: 20:55
31 Agosto 2026 07:00 tempo osservato: Sereno Sereno 20 82 1016 vento: Nord E 9.3
31 Agosto 2026 06:30 tempo osservato: Sereno Sereno 21 73 1016 vento: Nord N 5.5
31 Agosto 2026 06:00 tempo osservato: Sereno Sereno 20 82 1016 vento: Nord N/NO 7.4
31 Agosto 2026 05:30 tempo osservato: Sereno Sereno 19 100 1016 vento: Nord N 3.7
31 Agosto 2026 05:00 tempo osservato: Sereno Sereno 20 93 1016 vento: Nord N 3.7
31 Agosto 2026 04:30 tempo osservato: Sereno Sereno 21 94 1016 vento: Nord N 0
31 Agosto 2026 04:00 tempo osservato: Sereno Sereno 22 88 1016 vento: Nord N 3.7
31 Agosto 2026 03:30 tempo osservato: Sereno Sereno 21 94 1016 vento: Nord N 5.5
31 Agosto 2026 03:00 tempo osservato: Sereno Sereno 22 94 1016 vento: Nord S 9.3
31 Agosto 2026 02:30 tempo osservato: Sereno Sereno 22 94 1016 vento: Nord S 7.4
31 Agosto 2026 02:00 tempo osservato: Sereno Sereno 22 94 1017 vento: Nord S 7.4
31 Agosto 2026 01:30 tempo osservato: Sereno Sereno 22 88 1017 vento: Nord S/SE 7.4
31 Agosto 2026 01:00 tempo osservato: Sereno Sereno 23 78 1016 vento: Nord S 9.3
31 Agosto 2026 00:30 tempo osservato: Sereno Sereno 23 78 1016 vento: Nord N 3.7
31 Agosto 2026 00:00 tempo osservato: Sereno Sereno 24 73 1016 vento: Nord NO 7.4
30 Agosto 2026 23:30 tempo osservato: Sereno Sereno 24 78 1016 vento: Nord O/NO 11.1
30 Agosto 2026 23:00 tempo osservato: Sereno Sereno 24 73 1016 vento: Nord O/NO 13
30 Agosto 2026 22:30 tempo osservato: Sereno Sereno 24 73 1016 vento: Nord NO 14.8
30 Agosto 2026 22:00 tempo osservato: Sereno Sereno 24 73 1016 vento: Nord O/NO 13
30 Agosto 2026 21:30 tempo osservato: Sereno Sereno 24 73 1015 vento: Nord O/NO 14.8
30 Agosto 2026 21:00 tempo osservato: Sereno Sereno 25 69 1015 vento: Nord O/NO 18.5
30 Agosto 2026 20:30 tempo osservato: Sereno Sereno 25 73 1015 vento: Nord O 18.5
30 Agosto 2026 20:00 tempo osservato: Sereno Sereno 26 69 1015 vento: Nord O 16.7
30 Agosto 2026 19:30 tempo osservato: Sereno Sereno 27 57 1015 vento: Nord O/NO 18.5
30 Agosto 2026 19:00 tempo osservato: Sereno Sereno 29 45 1015 vento: Nord O 18.5
30 Agosto 2026 18:30 tempo osservato: Sereno Sereno 29 45 1015 vento: Nord O/NO 18.5
30 Agosto 2026 18:00 tempo osservato: Sereno Sereno 28 48 1015 vento: Nord O/NO 18.5
30 Agosto 2026 17:30 tempo osservato: Sereno Sereno 28 45 1016 vento: Nord O 18.5
30 Agosto 2026 17:00 tempo osservato: Sereno Sereno 28 45 1016 vento: Nord O 18.5
30 Agosto 2026 16:30 tempo osservato: Sereno Sereno 27 50 1016 vento: Nord O 20.3
30 Agosto 2026 16:00 tempo osservato: Sereno Sereno 28 45 1016 vento: Nord O 20.3
30 Agosto 2026 15:30 tempo osservato: Sereno Sereno 27 57 1017 vento: Nord O 14.8
30 Agosto 2026 15:00 tempo osservato: Sereno Sereno 29 45 1017 vento: Nord O/SO 14.8
30 Agosto 2026 14:30 tempo osservato: Sereno Sereno 28 39 1017 vento: Nord O/SO 14.8
30 Agosto 2026 14:00 tempo osservato: Sereno Sereno 29 39 1017 vento: Nord SO 11.1
30 Agosto 2026 13:30 tempo osservato: Sereno Sereno 29 30 1017 vento: Nord SO 11.1
30 Agosto 2026 13:00 tempo osservato: Sereno Sereno 28 37 1018 vento: Nord S/SO 9.3
30 Agosto 2026 12:30 tempo osservato: Sereno Sereno 28 37 1017 vento: Nord S/SO 7.4
30 Agosto 2026 12:00 tempo osservato: Sereno Sereno 28 45 1017 vento: Nord N 5.5
30 Agosto 2026 11:30 tempo osservato: Sereno Sereno 28 51 1017 vento: Nord N 5.5
30 Agosto 2026 11:00 tempo osservato: Sereno Sereno 26 57 1017 vento: Nord N 1.8
30 Agosto 2026 10:30 tempo osservato: Sereno Sereno 25 65 1017 vento: Nord N 1.8
30 Agosto 2026 10:00 tempo osservato: Sereno Sereno 24 60 1017 vento: Nord N 1.8
30 Agosto 2026 09:30 tempo osservato: Sereno Sereno 21 68 1017 vento: Nord E 7.4
30 Agosto 2026 09:00 tempo osservato: Sereno Sereno 20 77 1017 vento: Nord E 7.4
30 Agosto 2026 08:30 tempo osservato: Sereno Sereno 18 88 1016 vento: Nord N 5.5
30 Agosto 2026 08:00 tempo osservato: Sereno Sereno 17 100 1016 vento: Nord N 3.7